createdAt,value
2019-01-10T00:00:38.451Z,84.13
2019-01-10T00:03:38.419Z,84.13
2019-01-10T00:07:38.374Z,84.27
2019-01-10T00:19:38.248Z,83.55
2019-01-10T00:21:38.216Z,83.55
2019-01-10T00:32:38.104Z,83.75
2019-01-10T00:33:38.081Z,83.65
2019-01-10T00:36:38.052Z,83.65
2019-01-10T00:37:38.042Z,83.03
2019-01-10T00:45:37.953Z,83.17
2019-01-10T00:46:37.935Z,83.38
2019-01-10T00:50:37.897Z,82.92
2019-01-10T00:55:37.834Z,82.20
2019-01-10T01:02:37.761Z,81.68
2019-01-10T01:04:37.734Z,82.30
2019-01-10T01:09:37.682Z,82.40
2019-01-10T01:19:37.565Z,81.68
2019-01-10T01:20:37.554Z,81.71
2019-01-10T01:22:37.530Z,82.72
2019-01-10T01:32:37.420Z,81.78
2019-01-10T01:36:37.416Z,81.78
2019-01-10T01:42:37.304Z,82.75
2019-01-10T01:43:37.292Z,83.06
2019-01-10T01:45:37.271Z,83.06
2019-01-10T01:52:37.191Z,82.44
2019-01-10T01:54:37.168Z,82.40
2019-01-10T01:55:37.159Z,81.89
2019-01-10T01:59:37.118Z,82.09
2019-01-10T02:00:37.099Z,81.57
2019-01-10T02:01:37.090Z,82.09
2019-01-10T02:04:37.055Z,81.89
2019-01-10T02:06:37.033Z,81.89
2019-01-10T02:08:37.015Z,82.65
2019-01-10T02:10:36.992Z,82.61
2019-01-10T02:11:36.976Z,82.72
2019-01-10T02:12:36.965Z,82.30
2019-01-10T02:16:36.922Z,81.68
2019-01-10T02:24:36.834Z,82.86
2019-01-10T02:25:36.821Z,83.06
2019-01-10T02:26:36.810Z,82.75
2019-01-10T02:28:36.793Z,82.96
2019-01-10T02:29:36.784Z,82.96
2019-01-10T02:31:36.756Z,82.23
2019-01-10T02:32:36.743Z,82.44
2019-01-10T02:33:36.732Z,82.23
2019-01-10T02:35:36.712Z,82.34
2019-01-10T02:36:36.707Z,82.90
2019-01-10T02:41:36.642Z,83.17
2019-01-10T02:42:36.631Z,82.96
2019-01-10T02:43:36.621Z,82.65
2019-01-10T02:47:36.576Z,82.65
2019-01-10T02:48:36.564Z,82.65
2019-01-10T02:51:36.536Z,82.13
2019-01-10T02:53:36.511Z,81.61
2019-01-10T02:54:36.536Z,81.40
2019-01-10T02:56:36.474Z,82.03
2019-01-10T02:58:36.451Z,81.82
2019-01-10T02:59:36.439Z,81.51
2019-01-10T03:01:36.419Z,81.82
2019-01-10T03:02:36.409Z,81.92
2019-01-10T03:03:36.400Z,81.61
2019-01-10T03:04:36.387Z,82.03
2019-01-10T03:05:36.374Z,81.92
2019-01-10T03:06:36.363Z,81.92
2019-01-10T03:07:36.352Z,81.71
2019-01-10T03:08:36.338Z,81.61
2019-01-10T03:09:36.387Z,81.71
2019-01-10T03:10:36.321Z,81.71
2019-01-10T03:11:36.313Z,80.47
2019-01-10T03:13:37.113Z,80.78
2019-01-10T03:14:36.286Z,80.99
2019-01-10T03:16:36.254Z,80.54
2019-01-10T03:17:36.250Z,80.54
2019-01-10T03:18:36.230Z,80.33
2019-01-10T03:20:36.204Z,80.54
2019-01-10T03:23:36.176Z,80.64
2019-01-10T03:24:36.161Z,79.95
2019-01-10T03:25:36.152Z,80.47
2019-01-10T03:26:36.143Z,80.88
2019-01-10T03:27:36.128Z,80.05
2019-01-10T03:29:36.101Z,80.26
2019-01-10T03:30:36.110Z,80.78
2019-01-10T03:31:36.082Z,80.26
2019-01-10T03:33:36.057Z,79.95
2019-01-10T03:35:36.038Z,80.37
2019-01-10T03:37:36.014Z,80.26
2019-01-10T03:39:35.996Z,80.47
2019-01-10T03:40:35.985Z,80.57
2019-01-10T03:41:36.086Z,80.47
2019-01-10T03:42:35.956Z,80.33
2019-01-10T03:43:35.949Z,80.43
2019-01-10T03:45:35.923Z,78.88
2019-01-10T03:47:35.901Z,78.71
2019-01-10T03:48:35.889Z,78.50
2019-01-10T03:50:37.906Z,78.19
2019-01-10T03:51:35.857Z,77.67
2019-01-10T03:54:35.829Z,78.85
2019-01-10T04:00:35.759Z,78.75
2019-01-10T04:01:35.744Z,79.37
2019-01-10T04:02:35.737Z,79.27
2019-01-10T04:04:35.709Z,79.44
2019-01-10T04:06:35.687Z,79.16
2019-01-10T04:08:35.667Z,78.09
2019-01-10T04:09:35.654Z,78.30
2019-01-10T04:13:35.618Z,78.92
2019-01-10T04:14:35.597Z,77.88
2019-01-10T04:16:35.581Z,78.30
2019-01-10T04:19:35.540Z,79.54
2019-01-10T04:20:35.531Z,79.06
2019-01-10T04:21:35.520Z,79.33
2019-01-10T04:22:35.521Z,79.13
2019-01-10T04:23:35.497Z,79.44
2019-01-10T04:24:35.485Z,78.71
2019-01-10T04:25:35.476Z,78.61
2019-01-10T04:26:35.468Z,78.82
2019-01-10T04:27:35.449Z,78.92
2019-01-10T04:28:35.440Z,78.71
2019-01-10T04:29:35.432Z,79.44
2019-01-10T04:30:35.417Z,78.92
2019-01-10T04:31:35.417Z,78.92
2019-01-10T04:32:35.396Z,78.82
2019-01-10T04:33:35.386Z,78.82
2019-01-10T04:34:35.377Z,79.65
2019-01-10T04:35:35.362Z,78.61
2019-01-10T04:36:35.354Z,78.92
2019-01-10T04:37:35.338Z,79.58
2019-01-10T04:38:35.329Z,79.54
2019-01-10T04:39:35.323Z,79.13
2019-01-10T04:40:35.304Z,79.23
2019-01-10T04:41:35.295Z,78.96
2019-01-10T04:42:35.283Z,78.85
2019-01-10T04:43:35.270Z,79.47
2019-01-10T04:44:35.261Z,79.16
2019-01-10T04:45:35.250Z,79.58
2019-01-10T04:46:35.236Z,79.54
2019-01-10T04:47:35.241Z,79.99
2019-01-10T04:48:35.215Z,79.89
2019-01-10T04:49:35.202Z,78.92
2019-01-10T04:50:35.192Z,79.54
2019-01-10T04:51:35.181Z,78.75
2019-01-10T04:52:35.176Z,78.85
2019-01-10T04:53:35.159Z,79.54
2019-01-10T04:54:38.399Z,79.74
2019-01-10T04:55:35.136Z,78.82
2019-01-10T04:56:35.126Z,78.82
2019-01-10T04:57:35.115Z,78.82
2019-01-10T04:58:35.104Z,78.85
2019-01-10T04:59:35.093Z,78.61
2019-01-10T05:00:35.090Z,78.64
2019-01-10T05:01:35.069Z,78.82
2019-01-10T05:02:35.064Z,78.64
2019-01-10T05:03:35.053Z,78.85
2019-01-10T05:04:35.037Z,79.27
2019-01-10T05:05:35.024Z,78.75
2019-01-10T05:06:35.025Z,78.82
2019-01-10T05:07:35.006Z,79.44
2019-01-10T05:08:34.991Z,79.58
2019-01-10T05:09:34.980Z,79.68
2019-01-10T05:10:34.970Z,78.82
2019-01-10T05:11:34.958Z,79.54
2019-01-10T05:12:34.948Z,78.61
2019-01-10T05:13:34.936Z,78.71
2019-01-10T05:14:34.924Z,79.58
2019-01-10T05:15:34.915Z,79.27
2019-01-10T05:16:34.900Z,79.27
2019-01-10T05:17:34.890Z,79.37
2019-01-10T05:18:34.878Z,79.61
2019-01-10T05:19:34.866Z,80.20
2019-01-10T05:20:34.855Z,80.31
2019-01-10T05:21:34.851Z,79.58
2019-01-10T05:22:34.834Z,79.68
2019-01-10T05:23:34.822Z,79.99
2019-01-10T05:24:34.811Z,80.82
2019-01-10T05:25:34.798Z,79.79
2019-01-10T05:26:34.791Z,79.58
2019-01-10T05:27:34.775Z,79.30
2019-01-10T05:28:34.764Z,79.61
2019-01-10T05:29:34.758Z,79.72
2019-01-10T05:30:34.743Z,80.34
2019-01-10T05:31:34.732Z,80.41
2019-01-10T05:32:34.726Z,79.89
2019-01-10T05:33:34.713Z,79.93
2019-01-10T05:34:34.697Z,79.68
2019-01-10T05:35:34.687Z,79.47
2019-01-10T05:36:34.675Z,80.55
2019-01-10T05:37:34.664Z,80.24
2019-01-10T05:38:34.653Z,79.51
2019-01-10T05:39:34.644Z,79.72
2019-01-10T05:40:34.630Z,80.03
2019-01-10T05:41:34.620Z,80.34
2019-01-10T05:42:34.610Z,80.13
2019-01-10T05:43:34.602Z,79.40
2019-01-10T05:44:34.585Z,79.09
2019-01-10T05:45:34.578Z,79.09
2019-01-10T05:46:34.570Z,79.09
2019-01-10T05:47:34.551Z,79.30
2019-01-10T05:48:34.543Z,78.78
2019-01-10T05:49:34.528Z,78.68
2019-01-10T05:50:34.520Z,79.72
2019-01-10T05:51:34.510Z,79.72
2019-01-10T05:52:34.494Z,78.75
2019-01-10T05:53:34.481Z,79.79
2019-01-10T05:54:34.477Z,79.61
2019-01-10T05:55:34.481Z,79.79
2019-01-10T05:56:34.448Z,79.37
2019-01-10T05:57:34.440Z,79.40
2019-01-10T05:58:34.424Z,78.96
2019-01-10T05:59:34.414Z,78.23
2019-01-10T06:00:34.409Z,78.47
2019-01-10T06:01:34.393Z,78.99
2019-01-10T06:02:34.383Z,79.09
2019-01-10T06:03:34.372Z,79.40
2019-01-10T06:04:34.358Z,79.27
2019-01-10T06:05:34.353Z,79.72
2019-01-10T06:06:34.344Z,78.57
2019-01-10T06:07:34.326Z,79.19
2019-01-10T06:08:34.313Z,78.36
2019-01-10T06:09:34.304Z,78.47
2019-01-10T06:10:34.291Z,78.99
2019-01-10T06:11:34.279Z,79.51
2019-01-10T06:12:34.269Z,79.61
2019-01-10T06:13:34.257Z,79.09
2019-01-10T06:14:35.737Z,79.30
2019-01-10T06:15:34.234Z,78.99
2019-01-10T06:16:34.222Z,79.65
2019-01-10T06:17:34.212Z,79.61
2019-01-10T06:18:34.202Z,79.51
2019-01-10T06:19:34.188Z,78.78
2019-01-10T06:20:34.182Z,78.36
2019-01-10T06:21:34.173Z,78.26
2019-01-10T06:22:34.158Z,77.92
2019-01-10T06:23:34.145Z,77.85
2019-01-10T06:24:34.134Z,77.95
2019-01-10T06:25:34.129Z,77.95
2019-01-10T06:26:34.210Z,77.43
2019-01-10T06:27:34.105Z,78.16
2019-01-10T06:28:34.088Z,77.92
2019-01-10T06:29:34.076Z,77.85
2019-01-10T06:30:34.065Z,77.53
2019-01-10T06:31:34.060Z,77.43
2019-01-10T06:32:34.045Z,78.16
2019-01-10T06:33:34.037Z,77.95
2019-01-10T06:34:34.026Z,77.95
2019-01-10T06:35:34.013Z,78.16
2019-01-10T06:36:33.997Z,77.43
2019-01-10T06:37:33.991Z,77.95
2019-01-10T06:38:33.974Z,77.22
2019-01-10T06:39:33.963Z,77.85
2019-01-10T06:40:33.957Z,78.05
2019-01-10T06:41:33.939Z,77.74
2019-01-10T06:42:33.928Z,78.36
2019-01-10T06:43:33.918Z,78.16
2019-01-10T06:44:33.913Z,78.19
2019-01-10T06:45:33.898Z,77.57
2019-01-10T06:46:33.883Z,77.95
2019-01-10T06:47:33.873Z,78.05
2019-01-10T06:48:33.863Z,78.30
2019-01-10T06:49:33.861Z,79.09
2019-01-10T06:50:33.838Z,78.36
2019-01-10T06:51:33.826Z,79.33
2019-01-10T06:52:33.816Z,77.95
2019-01-10T06:53:33.805Z,77.64
2019-01-10T06:54:33.791Z,77.74
2019-01-10T06:55:33.787Z,77.33
2019-01-10T06:56:33.774Z,77.85
2019-01-10T06:57:33.758Z,77.74
2019-01-10T06:58:33.749Z,77.22
2019-01-10T06:59:33.739Z,77.43
2019-01-10T07:00:33.725Z,77.85
2019-01-10T07:01:33.715Z,77.85
2019-01-10T07:02:33.704Z,78.47
2019-01-10T07:03:33.779Z,77.43
2019-01-10T07:04:33.683Z,77.74
2019-01-10T07:05:33.675Z,77.74
2019-01-10T07:06:33.663Z,77.74
2019-01-10T07:07:33.648Z,77.78
2019-01-10T07:08:33.645Z,77.43
2019-01-10T07:09:33.622Z,77.16
2019-01-10T07:10:33.614Z,77.53
2019-01-10T07:11:33.600Z,77.67
2019-01-10T07:12:33.589Z,77.43
2019-01-10T07:13:33.579Z,78.16
2019-01-10T07:14:33.571Z,77.64
2019-01-10T07:15:33.555Z,77.74
2019-01-10T07:16:33.546Z,77.53
2019-01-10T07:17:33.550Z,76.50
2019-01-10T07:18:33.555Z,76.81
2019-01-10T07:19:33.555Z,76.91
2019-01-10T07:20:33.500Z,76.60
2019-01-10T07:21:33.500Z,77.47
2019-01-10T07:22:33.505Z,77.67
2019-01-10T07:23:33.507Z,77.99
2019-01-10T07:24:33.453Z,77.99
2019-01-10T07:25:33.443Z,77.47
2019-01-10T07:26:33.435Z,78.16
2019-01-10T07:27:33.427Z,77.57
2019-01-10T07:28:33.408Z,77.57
2019-01-10T07:29:33.405Z,77.26
2019-01-10T07:30:36.191Z,76.91
2019-01-10T07:31:33.379Z,77.02
2019-01-10T07:32:33.363Z,76.60
2019-01-10T07:33:33.352Z,76.53
2019-01-10T07:34:33.344Z,76.50
2019-01-10T07:35:33.329Z,76.60
2019-01-10T07:36:33.319Z,77.02
2019-01-10T07:37:33.307Z,77.22
2019-01-10T07:38:33.296Z,76.91
2019-01-10T07:39:33.293Z,76.70
2019-01-10T07:40:33.276Z,76.70
2019-01-10T07:41:33.261Z,76.70
2019-01-10T07:42:33.259Z,76.39
2019-01-10T07:43:33.245Z,77.12
2019-01-10T07:44:33.227Z,76.95
2019-01-10T07:45:33.219Z,76.91
2019-01-10T07:46:33.205Z,76.70
2019-01-10T07:47:33.196Z,77.16
2019-01-10T07:48:33.187Z,77.16
2019-01-10T07:49:33.176Z,76.91
2019-01-10T07:50:33.163Z,76.70
2019-01-10T07:51:33.149Z,76.70
2019-01-10T07:52:33.140Z,76.70
2019-01-10T07:53:33.129Z,77.26
2019-01-10T07:54:33.124Z,77.74
2019-01-10T07:55:33.104Z,77.02
2019-01-10T07:56:33.092Z,77.12
2019-01-10T07:57:33.079Z,76.33
2019-01-10T07:58:33.068Z,76.08
2019-01-10T07:59:33.059Z,76.19
2019-01-10T08:00:33.047Z,75.77
2019-01-10T08:01:33.043Z,75.56
2019-01-10T08:02:33.024Z,75.98
2019-01-10T08:03:33.014Z,76.08
2019-01-10T08:04:33.003Z,75.87
2019-01-10T08:05:33.003Z,76.19
2019-01-10T08:06:32.982Z,75.87
2019-01-10T08:07:32.970Z,76.39
2019-01-10T08:08:32.957Z,76.26
2019-01-10T08:09:32.944Z,75.04
2019-01-10T08:10:32.935Z,75.87
2019-01-10T08:11:32.924Z,76.19
2019-01-10T08:12:32.914Z,75.56
2019-01-10T08:13:32.901Z,75.04
2019-01-10T08:14:32.898Z,74.81
2019-01-10T08:15:32.879Z,74.42
2019-01-10T08:16:32.900Z,74.73
2019-01-10T08:17:32.861Z,74.73
2019-01-10T08:18:32.843Z,74.94
2019-01-10T08:19:32.841Z,74.32
2019-01-10T08:20:32.832Z,74.63
2019-01-10T08:21:32.812Z,74.11
2019-01-10T08:22:32.805Z,74.01
2019-01-10T08:23:32.808Z,74.53
2019-01-10T08:24:32.779Z,73.80
2019-01-10T08:25:32.769Z,74.73
2019-01-10T08:26:32.755Z,74.42
2019-01-10T08:27:32.744Z,73.90
2019-01-10T08:28:32.748Z,74.11
2019-01-10T08:29:33.625Z,74.11
2019-01-10T08:30:32.709Z,74.53
2019-01-10T08:31:32.697Z,74.21
2019-01-10T08:32:32.700Z,74.53
2019-01-10T08:33:32.686Z,74.53
2019-01-10T08:34:32.680Z,73.80
2019-01-10T08:35:32.666Z,73.90
2019-01-10T08:36:32.960Z,73.69
2019-01-10T08:37:32.632Z,74.01
2019-01-10T08:38:32.618Z,72.66
2019-01-10T08:39:32.619Z,72.55
2019-01-10T08:40:32.596Z,73.15
2019-01-10T08:41:32.586Z,73.80
2019-01-10T08:42:32.574Z,73.90
2019-01-10T08:43:32.567Z,73.28
2019-01-10T08:44:33.738Z,72.14
2019-01-10T08:45:32.541Z,72.86
2019-01-10T08:46:32.535Z,73.04
2019-01-10T08:47:32.521Z,72.73
2019-01-10T08:48:32.510Z,73.46
2019-01-10T08:49:32.499Z,74.08
2019-01-10T08:50:32.486Z,74.18
2019-01-10T08:51:32.477Z,73.77
2019-01-10T08:52:32.464Z,73.77
2019-01-10T08:53:32.455Z,72.63
2019-01-10T08:54:32.438Z,72.80
2019-01-10T08:55:32.430Z,72.80
2019-01-10T08:56:32.415Z,72.69
2019-01-10T08:57:32.407Z,72.63
2019-01-10T08:58:32.398Z,72.63
2019-01-10T08:59:32.381Z,71.97
2019-01-10T09:00:32.370Z,72.21
2019-01-10T09:01:32.363Z,73.15
2019-01-10T09:02:32.352Z,72.52
2019-01-10T09:03:32.339Z,72.63
2019-01-10T09:04:32.325Z,72.90
2019-01-10T09:05:32.314Z,72.83
2019-01-10T09:06:32.314Z,71.66
2019-01-10T09:07:32.309Z,71.69
2019-01-10T09:08:32.286Z,70.93
2019-01-10T09:09:32.275Z,70.93
2019-01-10T09:10:32.261Z,71.24
2019-01-10T09:11:32.245Z,71.45
2019-01-10T09:12:32.234Z,71.55
2019-01-10T09:13:32.227Z,70.62
2019-01-10T09:14:32.216Z,70.93
2019-01-10T09:15:34.657Z,70.83
2019-01-10T09:16:32.190Z,71.55
2019-01-10T09:17:32.180Z,70.93
2019-01-10T09:18:32.173Z,71.73
2019-01-10T09:19:32.157Z,71.00
2019-01-10T09:20:32.144Z,70.80
2019-01-10T09:21:32.132Z,70.80
2019-01-10T09:22:32.121Z,71.21
2019-01-10T09:23:32.109Z,70.69
2019-01-10T09:24:32.105Z,70.86
2019-01-10T09:25:32.087Z,70.76
2019-01-10T09:26:37.754Z,71.38
2019-01-10T09:27:32.073Z,70.56
2019-01-10T09:28:32.061Z,70.35
2019-01-10T09:29:32.043Z,69.59
2019-01-10T09:30:32.032Z,69.69
2019-01-10T09:31:32.019Z,68.87
2019-01-10T09:32:32.013Z,68.97
2019-01-10T09:33:31.996Z,68.84
2019-01-10T09:34:31.987Z,68.46
2019-01-10T09:35:31.974Z,65.58
2019-01-10T09:36:31.970Z,65.16
2019-01-10T09:37:31.953Z,64.85
2019-01-10T09:38:31.950Z,65.13
2019-01-10T09:39:31.931Z,64.75
2019-01-10T09:40:31.920Z,64.03
2019-01-10T09:41:31.909Z,65.30
2019-01-10T09:42:31.897Z,64.37
2019-01-10T09:43:31.891Z,65.12
2019-01-10T09:44:31.876Z,65.53
2019-01-10T09:45:31.864Z,65.67
2019-01-10T09:46:31.853Z,65.88
2019-01-10T09:47:31.841Z,66.32
2019-01-10T09:48:31.831Z,66.22
2019-01-10T09:49:31.833Z,66.83
2019-01-10T09:50:31.807Z,66.22
2019-01-10T09:51:31.801Z,66.25
2019-01-10T09:52:31.786Z,67.07
2019-01-10T09:53:31.777Z,67.38
2019-01-10T09:54:31.768Z,66.45
2019-01-10T09:55:31.753Z,67.21
2019-01-10T09:56:31.744Z,67.00
2019-01-10T09:57:31.733Z,67.93
2019-01-10T09:58:31.723Z,67.96
2019-01-10T09:59:31.710Z,67.62
2019-01-10T10:00:31.698Z,68.79
2019-01-10T10:01:31.686Z,68.38
2019-01-10T10:02:31.674Z,68.20
2019-01-10T10:03:31.665Z,69.34
2019-01-10T10:04:31.702Z,69.27
2019-01-10T10:05:31.641Z,68.93
2019-01-10T10:06:31.628Z,69.14
2019-01-10T10:07:31.642Z,68.20
2019-01-10T10:08:31.614Z,68.82
2019-01-10T10:09:31.596Z,69.45
2019-01-10T10:10:31.592Z,69.34
2019-01-10T10:11:34.279Z,68.69
2019-01-10T10:12:31.568Z,68.51
2019-01-10T10:13:31.553Z,68.72
2019-01-10T10:14:31.540Z,68.69
2019-01-10T10:15:31.533Z,67.00
2019-01-10T10:16:31.520Z,67.00
2019-01-10T10:17:31.507Z,66.66
2019-01-10T10:18:31.503Z,65.73
2019-01-10T10:19:31.493Z,65.60
2019-01-10T10:20:31.475Z,65.46
2019-01-10T10:21:31.463Z,65.25
2019-01-10T10:22:31.460Z,65.46
2019-01-10T10:23:31.506Z,65.46
2019-01-10T10:24:31.429Z,65.02
2019-01-10T10:25:31.419Z,64.20
2019-01-10T10:26:31.408Z,62.11
2019-01-10T10:27:31.397Z,61.39
2019-01-10T10:28:31.396Z,62.21
2019-01-10T10:29:31.382Z,61.39
2019-01-10T10:30:31.365Z,61.60
2019-01-10T10:31:31.352Z,59.91
2019-01-10T10:32:31.341Z,59.30
2019-01-10T10:33:31.335Z,59.40
2019-01-10T10:34:31.332Z,60.46
2019-01-10T10:35:31.308Z,60.87
2019-01-10T10:36:31.304Z,61.05
2019-01-10T10:37:31.284Z,60.43
2019-01-10T10:38:31.275Z,60.77
2019-01-10T10:39:31.264Z,62.24
2019-01-10T10:40:31.253Z,62.45
2019-01-10T10:41:31.241Z,61.65
2019-01-10T10:42:31.238Z,62.35
2019-01-10T10:43:31.220Z,63.07
2019-01-10T10:44:31.211Z,62.27
2019-01-10T10:45:31.203Z,63.15
2019-01-10T10:46:31.187Z,63.47
2019-01-10T10:47:31.175Z,63.75
2019-01-10T10:48:31.171Z,63.10
2019-01-10T10:49:31.160Z,62.89
2019-01-10T10:50:31.142Z,63.17
2019-01-10T10:51:31.142Z,63.28
2019-01-10T10:52:31.120Z,63.38
2019-01-10T10:53:31.108Z,61.93
2019-01-10T10:54:31.103Z,62.48
2019-01-10T10:55:31.091Z,62.35
2019-01-10T10:56:31.081Z,61.73
2019-01-10T10:57:31.065Z,61.34
2019-01-10T10:58:31.070Z,62.17
2019-01-10T10:59:31.047Z,62.68
2019-01-10T11:00:31.032Z,63.13
2019-01-10T11:01:31.026Z,63.15
2019-01-10T11:02:31.013Z,63.64
2019-01-10T11:03:30.999Z,63.43
2019-01-10T11:04:30.988Z,63.31
2019-01-10T11:05:30.977Z,61.70
2019-01-10T11:06:30.969Z,61.18
2019-01-10T11:07:30.961Z,61.60
2019-01-10T11:08:31.020Z,61.62
2019-01-10T11:09:30.933Z,62.24
2019-01-10T11:10:30.924Z,61.62
2019-01-10T11:11:30.917Z,61.62
2019-01-10T11:12:30.906Z,62.14
2019-01-10T11:13:30.897Z,60.90
2019-01-10T11:14:30.879Z,61.52
2019-01-10T11:15:30.869Z,60.59
2019-01-10T11:16:30.857Z,61.49
2019-01-10T11:17:30.844Z,60.49
2019-01-10T11:18:30.833Z,60.38
2019-01-10T11:19:30.828Z,60.02
2019-01-10T11:20:30.829Z,56.82
2019-01-10T11:21:30.806Z,55.95
2019-01-10T11:22:30.788Z,55.20
2019-01-10T11:23:30.780Z,55.12
2019-01-10T11:24:30.769Z,56.71
2019-01-10T11:25:30.757Z,57.87
2019-01-10T11:26:30.743Z,58.75
2019-01-10T11:27:30.735Z,59.47
2019-01-10T11:28:30.721Z,59.61
2019-01-10T11:29:30.714Z,59.71
2019-01-10T11:30:30.700Z,59.50
2019-01-10T11:31:30.690Z,59.61
2019-01-10T11:32:30.675Z,59.63
2019-01-10T11:33:30.672Z,59.84
2019-01-10T11:34:30.654Z,60.18
2019-01-10T11:35:30.643Z,60.31
2019-01-10T11:36:30.639Z,60.10
2019-01-10T11:37:30.628Z,60.31
2019-01-10T11:38:30.613Z,60.31
2019-01-10T11:39:30.606Z,59.79
2019-01-10T11:40:30.587Z,60.07
2019-01-10T11:41:30.577Z,60.07
2019-01-10T11:42:30.565Z,60.18
2019-01-10T11:43:30.555Z,60.00
2019-01-10T11:44:30.550Z,60.21
2019-01-10T11:45:30.532Z,59.63
2019-01-10T11:46:30.522Z,58.81
2019-01-10T11:47:30.510Z,58.81
2019-01-10T11:48:30.711Z,59.66
2019-01-10T11:49:30.488Z,60.41
2019-01-10T11:50:30.477Z,59.87
2019-01-10T11:51:30.467Z,59.87
2019-01-10T11:52:30.456Z,59.87
2019-01-10T11:53:35.445Z,60.07
2019-01-10T11:54:30.439Z,58.80
2019-01-10T11:55:30.427Z,55.23
2019-01-10T11:56:30.413Z,55.27
2019-01-10T11:57:30.399Z,55.84
2019-01-10T11:58:30.394Z,56.35
2019-01-10T11:59:30.377Z,55.95
2019-01-10T12:00:30.364Z,56.77
2019-01-10T12:01:30.358Z,55.12
2019-01-10T12:02:36.242Z,55.12
2019-01-10T12:03:54.814Z,55.15
2019-01-10T12:04:54.802Z,55.48
2019-01-10T12:05:54.792Z,54.94
2019-01-10T12:06:54.780Z,55.15
2019-01-10T12:07:54.769Z,54.94
2019-01-10T12:08:54.761Z,55.02
2019-01-10T12:09:54.744Z,54.30
2019-01-10T12:10:54.738Z,52.27
2019-01-10T12:11:54.721Z,52.50
2019-01-10T12:12:54.712Z,53.17
2019-01-10T12:13:54.714Z,54.25
2019-01-10T12:14:54.707Z,55.20
2019-01-10T12:15:54.679Z,56.12
2019-01-10T12:16:54.674Z,56.35
2019-01-10T12:17:54.656Z,56.59
2019-01-10T12:18:59.352Z,56.69
2019-01-10T12:19:54.632Z,56.82
2019-01-10T12:20:54.622Z,57.03
2019-01-10T12:21:54.609Z,58.19
2019-01-10T12:22:54.602Z,57.34
2019-01-10T12:23:54.586Z,57.47
2019-01-10T12:24:54.578Z,57.36
2019-01-10T12:25:54.583Z,57.67
2019-01-10T12:26:54.587Z,58.22
2019-01-10T12:27:54.589Z,58.22
2019-01-10T12:28:54.537Z,58.22
2019-01-10T12:29:54.533Z,57.91
2019-01-10T12:30:54.536Z,58.84
2019-01-10T12:31:54.541Z,58.63
2019-01-10T12:32:54.485Z,57.60
2019-01-10T12:33:54.476Z,58.01
2019-01-10T12:34:54.462Z,58.19
2019-01-10T12:35:54.450Z,57.44
2019-01-10T12:37:00.307Z,55.56
2019-01-10T12:37:55.450Z,55.87
2019-01-10T12:38:54.417Z,55.69
2019-01-10T12:39:54.413Z,56.13
2019-01-10T12:40:54.394Z,56.05
2019-01-10T12:41:54.383Z,56.36
2019-01-10T12:42:54.372Z,56.67
2019-01-10T12:43:54.361Z,56.39
2019-01-10T12:44:54.356Z,55.87
2019-01-10T12:45:54.343Z,56.39
2019-01-10T12:46:54.329Z,57.42
2019-01-10T12:47:54.317Z,56.15
2019-01-10T12:48:54.305Z,56.75
2019-01-10T12:49:54.294Z,56.62
2019-01-10T12:50:54.286Z,55.61
2019-01-10T12:51:54.271Z,56.20
2019-01-10T12:52:54.260Z,55.82
2019-01-10T12:53:54.249Z,56.23
2019-01-10T12:54:54.238Z,56.03
2019-01-10T12:55:54.235Z,57.06
2019-01-10T12:56:54.216Z,57.06
2019-01-10T12:57:54.209Z,56.56
2019-01-10T12:58:54.197Z,57.31
2019-01-10T12:59:54.185Z,57.94
2019-01-10T13:00:54.170Z,58.27
2019-01-10T13:01:54.160Z,58.99
2019-01-10T13:02:54.153Z,58.92
2019-01-10T13:03:54.142Z,58.92
2019-01-10T13:04:54.130Z,59.85
2019-01-10T13:05:54.112Z,59.44
2019-01-10T13:06:54.102Z,59.74
2019-01-10T13:08:03.129Z,59.23
2019-01-10T13:08:55.099Z,59.41
2019-01-10T13:09:54.075Z,58.38
2019-01-10T13:10:54.066Z,58.48
2019-01-10T13:11:54.047Z,58.61
2019-01-10T13:12:54.043Z,58.50
2019-01-10T13:13:54.155Z,58.92
2019-01-10T13:14:54.018Z,59.13
2019-01-10T13:15:54.004Z,58.30
2019-01-10T13:16:54.001Z,58.02
2019-01-10T13:17:53.982Z,58.19
2019-01-10T13:18:53.969Z,57.47
2019-01-10T13:19:53.957Z,58.30
2019-01-10T13:20:53.945Z,57.78
2019-01-10T13:21:53.935Z,58.43
2019-01-10T13:22:53.924Z,58.43
2019-01-10T13:23:53.914Z,58.43
2019-01-10T13:24:53.906Z,58.43
2019-01-10T13:25:59.621Z,58.02
2019-01-10T13:27:18.358Z,59.05
2019-01-10T13:28:18.349Z,58.53
2019-01-10T13:29:18.336Z,59.39
2019-01-10T13:30:18.327Z,59.49
2019-01-10T13:31:18.318Z,59.60
2019-01-10T13:32:18.304Z,59.39
2019-01-10T13:33:18.366Z,59.08
2019-01-10T13:34:18.285Z,58.53
2019-01-10T13:35:18.281Z,58.66
2019-01-10T13:36:18.270Z,58.43
2019-01-10T13:37:18.249Z,57.91
2019-01-10T13:38:18.237Z,58.43
2019-01-10T13:39:18.225Z,58.87
2019-01-10T13:40:18.222Z,58.66
2019-01-10T13:41:18.203Z,59.39
2019-01-10T13:42:18.193Z,59.18
2019-01-10T13:43:18.181Z,58.97
2019-01-10T13:44:18.176Z,58.63
2019-01-10T13:45:18.159Z,58.63
2019-01-10T13:46:18.148Z,58.87
2019-01-10T13:47:18.143Z,58.94
2019-01-10T13:48:18.127Z,59.25
2019-01-10T13:49:18.131Z,59.18
2019-01-10T13:50:18.105Z,59.69
2019-01-10T13:51:18.126Z,60.21
2019-01-10T13:52:18.082Z,59.83
2019-01-10T13:53:18.076Z,60.04
2019-01-10T13:54:18.081Z,60.14
2019-01-10T13:55:18.048Z,59.93
2019-01-10T13:56:18.039Z,60.76
2019-01-10T13:57:18.031Z,60.66
2019-01-10T13:58:18.014Z,60.14
2019-01-10T13:59:18.005Z,60.06
2019-01-10T14:00:18.000Z,60.04
2019-01-10T14:01:17.983Z,60.27
2019-01-10T14:02:17.972Z,59.41
2019-01-10T14:03:17.964Z,59.31
2019-01-10T14:04:17.950Z,59.21
2019-01-10T14:05:17.940Z,59.62
2019-01-10T14:06:17.936Z,59.93
2019-01-10T14:07:17.917Z,59.65
2019-01-10T14:08:17.907Z,60.04
2019-01-10T14:09:17.896Z,59.83
2019-01-10T14:10:17.885Z,59.75
2019-01-10T14:11:17.873Z,60.27
2019-01-10T14:12:17.862Z,60.79
2019-01-10T14:13:17.855Z,60.19
2019-01-10T14:14:17.839Z,61.13
2019-01-10T14:15:17.829Z,60.61
2019-01-10T14:16:17.820Z,60.82
2019-01-10T14:17:17.805Z,60.58
2019-01-10T14:18:17.796Z,60.09
2019-01-10T14:19:17.784Z,59.85
2019-01-10T14:20:17.771Z,60.37
2019-01-10T14:21:17.764Z,59.78
2019-01-10T14:22:17.752Z,61.13
2019-01-10T14:23:17.742Z,61.65
2019-01-10T14:24:17.729Z,61.85
2019-01-10T14:25:17.718Z,61.02
2019-01-10T14:26:17.772Z,61.02
2019-01-10T14:27:17.697Z,60.51
2019-01-10T14:28:17.695Z,61.34
2019-01-10T14:29:17.674Z,60.82
2019-01-10T14:30:17.668Z,61.02
2019-01-10T14:31:17.652Z,61.65
2019-01-10T14:32:17.642Z,61.65
2019-01-10T14:33:17.635Z,61.34
2019-01-10T14:34:17.621Z,61.13
2019-01-10T14:35:17.612Z,61.15
2019-01-10T14:36:17.597Z,61.26
2019-01-10T14:37:17.589Z,61.65
2019-01-10T14:38:17.574Z,60.92
2019-01-10T14:39:17.570Z,61.23
2019-01-10T14:40:17.557Z,61.34
2019-01-10T14:41:17.551Z,61.54
2019-01-10T14:42:17.532Z,61.34
2019-01-10T14:43:17.520Z,60.19
2019-01-10T14:44:17.509Z,60.30
2019-01-10T14:45:17.501Z,59.88
2019-01-10T14:46:17.486Z,59.36
2019-01-10T14:47:17.480Z,59.88
2019-01-10T14:48:17.470Z,60.51
2019-01-10T14:49:17.452Z,60.22
2019-01-10T14:50:17.444Z,60.61
2019-01-10T14:51:17.430Z,60.09
2019-01-10T14:52:17.420Z,59.88
2019-01-10T14:53:17.412Z,60.01
2019-01-10T14:54:17.404Z,60.74
2019-01-10T14:55:17.388Z,60.43
2019-01-10T14:56:17.377Z,60.11
2019-01-10T14:57:17.366Z,59.91
2019-01-10T14:58:17.355Z,60.43
2019-01-10T14:59:17.349Z,60.53
2019-01-10T15:00:17.331Z,59.71
2019-01-10T15:01:17.330Z,60.15
2019-01-10T15:02:17.311Z,60.22
2019-01-10T15:03:17.300Z,59.29
2019-01-10T15:04:17.289Z,59.39
2019-01-10T15:05:17.275Z,59.50
2019-01-10T15:06:17.265Z,59.11
2019-01-10T15:07:17.257Z,60.11
2019-01-10T15:08:17.245Z,59.80
2019-01-10T15:09:17.234Z,59.19
2019-01-10T15:10:17.221Z,59.08
2019-01-10T15:11:17.209Z,59.19
2019-01-10T15:12:17.199Z,59.29
2019-01-10T15:13:17.192Z,58.98
2019-01-10T15:14:17.183Z,58.25
2019-01-10T15:15:17.180Z,57.94
2019-01-10T15:16:17.153Z,57.84
2019-01-10T15:17:17.148Z,58.56
2019-01-10T15:18:17.138Z,58.67
2019-01-10T15:19:17.126Z,58.67
2019-01-10T15:20:17.116Z,57.73
2019-01-10T15:21:17.099Z,57.84
2019-01-10T15:22:17.089Z,58.15
2019-01-10T15:23:17.084Z,58.12
2019-01-10T15:24:17.065Z,58.15
2019-01-10T15:25:17.055Z,57.40